createdAt,value
2018-04-01T00:02:06.452Z,68.30
2018-04-01T00:04:34.208Z,68.00
2018-04-01T00:07:02.007Z,68.80
2018-04-01T00:09:29.739Z,68.46
2018-04-01T00:11:57.541Z,68.36
2018-04-01T00:14:25.256Z,68.24
2018-04-01T00:16:53.105Z,68.64
2018-04-01T00:19:20.817Z,67.64
2018-04-01T00:21:48.607Z,66.64
2018-04-01T00:24:16.358Z,66.59
2018-04-01T00:26:44.128Z,68.17
2018-04-01T00:29:11.914Z,68.59
2018-04-01T00:31:39.664Z,70.03
2018-04-01T00:34:07.416Z,72.03
2018-04-01T00:36:35.327Z,72.28
2018-04-01T00:39:03.087Z,71.93
2018-04-01T00:41:30.816Z,72.17
2018-04-01T00:43:58.579Z,72.19
2018-04-01T00:46:26.357Z,71.94
2018-04-01T00:48:54.164Z,72.76
2018-04-01T00:51:21.879Z,73.76
2018-04-01T00:53:49.661Z,73.26
2018-04-01T00:56:17.399Z,72.63
2018-04-01T00:58:45.161Z,72.15
2018-04-01T01:01:12.934Z,72.56
2018-04-01T01:03:40.685Z,73.01
2018-04-01T01:06:08.968Z,73.35
2018-04-01T01:08:36.740Z,73.02
2018-04-01T01:11:04.818Z,73.24
2018-04-01T01:13:32.636Z,73.36
2018-04-01T01:16:00.406Z,73.07
2018-04-01T01:18:28.156Z,73.84
2018-04-01T01:20:55.937Z,73.68
2018-04-01T01:23:23.686Z,74.09
2018-04-01T01:25:51.715Z,73.95
2018-04-01T01:28:19.441Z,73.72
2018-04-01T01:30:47.214Z,73.74
2018-04-01T01:33:14.953Z,73.70
2018-04-01T01:35:42.712Z,73.71
2018-04-01T01:38:10.434Z,74.06
2018-04-01T01:40:38.324Z,73.90
2018-04-01T01:43:06.051Z,74.11
2018-04-01T01:45:33.803Z,73.90
2018-04-01T01:48:01.566Z,74.08
2018-04-01T01:50:29.332Z,74.17
2018-04-01T01:52:57.096Z,74.54
2018-04-01T01:55:24.831Z,74.75
2018-04-01T01:57:52.623Z,74.36
2018-04-01T02:00:20.407Z,74.93
2018-04-01T02:02:48.150Z,74.58
2018-04-01T02:05:15.959Z,73.95
2018-04-01T02:07:43.731Z,74.07
2018-04-01T02:10:11.479Z,74.19
2018-04-01T02:12:39.237Z,74.51
2018-04-01T02:15:07.000Z,74.77
2018-04-01T02:17:34.732Z,75.07
2018-04-01T02:20:02.465Z,75.01
2018-04-01T02:22:31.184Z,74.73
2018-04-01T02:24:59.343Z,74.93
2018-04-01T02:27:27.109Z,74.98
2018-04-01T02:29:54.827Z,74.98
2018-04-01T02:32:22.621Z,75.04
2018-04-01T02:34:50.358Z,75.13
2018-04-01T02:37:18.154Z,75.55
2018-04-01T02:39:45.971Z,75.38
2018-04-01T02:42:13.852Z,75.07
2018-04-01T02:44:41.613Z,74.79
2018-04-01T02:47:09.337Z,74.64
2018-04-01T02:49:37.089Z,74.65
2018-04-01T02:52:04.864Z,75.19
2018-04-01T02:54:32.598Z,74.81
2018-04-01T02:57:00.365Z,74.47
2018-04-01T02:59:28.147Z,74.64
2018-04-01T03:01:55.911Z,74.46
2018-04-01T03:04:23.648Z,74.93
2018-04-01T03:06:51.397Z,74.27
2018-04-01T03:09:19.193Z,74.19
2018-04-01T03:11:46.989Z,74.27
2018-04-01T03:14:14.936Z,73.90
2018-04-01T03:16:42.699Z,73.60
2018-04-01T03:19:10.443Z,73.88
2018-04-01T03:21:38.220Z,73.58
2018-04-01T03:24:05.969Z,73.38
2018-04-01T03:26:33.721Z,73.41
2018-04-01T03:29:02.101Z,73.33
2018-04-01T03:31:29.848Z,73.43
2018-04-01T03:33:57.567Z,73.55
2018-04-01T03:36:25.352Z,74.04
2018-04-01T03:38:53.109Z,74.32
2018-04-01T03:41:20.888Z,74.33
2018-04-01T03:43:48.640Z,74.47
2018-04-01T03:46:16.401Z,74.54
2018-04-01T03:48:44.154Z,74.25
2018-04-01T03:51:11.887Z,73.92
2018-04-01T03:53:39.690Z,73.89
2018-04-01T03:56:07.481Z,73.96
2018-04-01T03:58:35.263Z,74.00
2018-04-01T04:01:03.029Z,73.88
2018-04-01T04:03:30.770Z,73.97
2018-04-01T04:05:58.587Z,73.89
2018-04-01T04:08:26.391Z,73.63
2018-04-01T04:10:54.123Z,73.08
2018-04-01T04:13:21.888Z,72.93
2018-04-01T04:15:49.615Z,72.87
2018-04-01T04:18:18.042Z,72.81
2018-04-01T04:20:45.759Z,72.65
2018-04-01T04:23:13.552Z,72.78
2018-04-01T04:25:41.335Z,72.76
2018-04-01T04:28:09.119Z,72.54
2018-04-01T04:30:36.879Z,72.49
2018-04-01T04:33:04.798Z,72.39
2018-04-01T04:35:32.546Z,72.17
2018-04-01T04:38:00.323Z,71.87
2018-04-01T04:40:28.087Z,72.07
2018-04-01T04:42:56.699Z,72.34
2018-04-01T04:45:24.535Z,72.83
2018-04-01T04:47:52.280Z,73.02
2018-04-01T04:50:20.049Z,73.04
2018-04-01T04:52:47.833Z,73.20
2018-04-01T04:55:15.593Z,72.85
2018-04-01T04:57:43.315Z,72.73
2018-04-01T05:00:11.113Z,72.46
2018-04-01T05:02:38.828Z,72.47
2018-04-01T05:05:06.623Z,72.01
2018-04-01T05:07:34.343Z,71.55
2018-04-01T05:10:02.399Z,71.41
2018-04-01T05:12:30.163Z,71.48
2018-04-01T05:14:57.927Z,71.62
2018-04-01T05:17:25.693Z,71.30
2018-04-01T05:19:53.486Z,71.70
2018-04-01T05:22:21.275Z,71.27
2018-04-01T05:24:49.665Z,71.49
2018-04-01T05:27:17.475Z,72.13
2018-04-01T05:29:45.807Z,72.26
2018-04-01T05:32:13.662Z,71.86
2018-04-01T05:34:41.421Z,72.06
2018-04-01T05:37:09.213Z,72.22
2018-04-01T05:39:36.995Z,72.40
2018-04-01T05:42:04.964Z,72.61
2018-04-01T05:44:32.715Z,72.47
2018-04-01T05:47:00.528Z,72.73
2018-04-01T05:49:28.291Z,72.68
2018-04-01T05:51:56.054Z,72.29
2018-04-01T05:54:23.769Z,72.61
2018-04-01T05:56:51.562Z,71.75
2018-04-01T05:59:19.374Z,71.83
2018-04-01T06:01:47.186Z,71.96
2018-04-01T06:04:14.960Z,72.20
2018-04-01T06:06:42.736Z,72.38
2018-04-01T06:09:10.513Z,72.73
2018-04-01T06:11:38.330Z,72.60
2018-04-01T06:14:06.148Z,72.44
2018-04-01T06:16:34.365Z,71.17
2018-04-01T06:19:02.164Z,71.57
2018-04-01T06:21:29.934Z,71.40
2018-04-01T06:23:57.691Z,71.63
2018-04-01T06:26:25.492Z,72.30
2018-04-01T06:28:53.258Z,72.53
2018-04-01T06:31:21.013Z,72.45
2018-04-01T06:33:48.807Z,72.60
2018-04-01T06:36:16.527Z,72.73
2018-04-01T06:38:44.339Z,72.95
2018-04-01T06:41:12.119Z,72.85
2018-04-01T06:43:39.884Z,73.37
2018-04-01T06:46:07.649Z,73.42
2018-04-01T06:48:35.472Z,73.30
2018-04-01T06:51:03.464Z,73.59
2018-04-01T06:53:31.223Z,73.21
2018-04-01T06:55:58.980Z,72.88
2018-04-01T06:58:26.727Z,72.64
2018-04-01T07:00:54.495Z,72.58
2018-04-01T07:03:22.219Z,72.54
2018-04-01T07:05:49.979Z,72.07
2018-04-01T07:08:17.696Z,72.00
2018-04-01T07:10:45.468Z,72.06
2018-04-01T07:13:13.230Z,72.33
2018-04-01T07:15:40.998Z,72.30
2018-04-01T07:18:08.737Z,72.33
2018-04-01T07:20:37.323Z,72.13
2018-04-01T07:23:05.073Z,72.15
2018-04-01T07:25:32.901Z,72.52
2018-04-01T07:28:00.721Z,72.52
2018-04-01T07:30:28.500Z,72.77
2018-04-01T07:32:56.254Z,72.98
2018-04-01T07:35:24.018Z,73.01
2018-04-01T07:37:51.789Z,72.68
2018-04-01T07:40:19.537Z,72.43
2018-04-01T07:42:47.320Z,72.11
2018-04-01T07:45:15.060Z,72.66
2018-04-01T07:47:42.832Z,72.55
2018-04-01T07:50:10.583Z,71.27
2018-04-01T07:52:38.340Z,71.87
2018-04-01T07:55:06.097Z,72.89
2018-04-01T07:57:33.859Z,73.56
2018-04-01T08:00:01.584Z,74.40
2018-04-01T08:02:29.323Z,74.22
2018-04-01T08:04:57.044Z,73.91
2018-04-01T08:07:24.796Z,73.89
2018-04-01T08:09:52.551Z,74.06
2018-04-01T08:12:20.366Z,74.29
2018-04-01T08:14:48.119Z,75.52
2018-04-01T08:17:15.895Z,78.08
2018-04-01T08:19:43.660Z,80.07
2018-04-01T08:22:11.508Z,78.58
2018-04-01T08:24:39.288Z,77.73
2018-04-01T08:27:07.054Z,77.61
2018-04-01T08:29:34.843Z,76.94
2018-04-01T08:32:02.619Z,77.37
2018-04-01T08:34:30.452Z,77.55
2018-04-01T08:36:58.195Z,77.07
2018-04-01T08:39:25.969Z,76.86
2018-04-01T08:41:53.721Z,76.77
2018-04-01T08:44:21.534Z,76.98
2018-04-01T08:46:49.294Z,77.30
2018-04-01T08:49:17.039Z,77.63
2018-04-01T08:51:45.390Z,76.90
2018-04-01T08:54:13.179Z,75.91
2018-04-01T08:56:40.912Z,75.75
2018-04-01T08:59:08.698Z,75.55
2018-04-01T09:01:36.504Z,75.21
2018-04-01T09:04:04.715Z,74.82
2018-04-01T09:06:32.492Z,75.42
2018-04-01T09:09:00.296Z,74.31
2018-04-01T09:11:28.079Z,74.15
2018-04-01T09:13:55.791Z,72.95
2018-04-01T09:16:23.565Z,72.98
2018-04-01T09:18:51.269Z,71.40
2018-04-01T09:21:19.021Z,70.97
2018-04-01T09:23:46.732Z,71.28
2018-04-01T09:26:14.474Z,70.24
2018-04-01T09:28:42.226Z,70.57
2018-04-01T09:31:10.025Z,70.14
2018-04-01T09:33:37.776Z,69.02
2018-04-01T09:36:05.581Z,69.64
2018-04-01T09:38:33.324Z,69.11
2018-04-01T09:41:01.110Z,68.93
2018-04-01T09:43:28.841Z,68.09
2018-04-01T09:45:56.594Z,68.58
2018-04-01T09:48:24.553Z,68.05
2018-04-01T09:50:52.249Z,68.43
2018-04-01T09:53:19.991Z,67.17
2018-04-01T09:55:47.728Z,67.34
2018-04-01T09:58:15.874Z,67.08
2018-04-01T10:00:57.021Z,67.37
2018-04-01T10:03:25.407Z,66.22
2018-04-01T10:05:53.632Z,65.94
2018-04-01T10:08:21.991Z,64.41
2018-04-01T10:10:50.263Z,65.67
2018-04-01T10:13:18.551Z,65.30
2018-04-01T10:15:46.888Z,63.29
2018-04-01T10:18:15.216Z,63.48
2018-04-01T10:20:43.482Z,64.12
2018-04-01T10:23:11.796Z,61.50
2018-04-01T10:25:40.185Z,60.67
2018-04-01T10:28:08.447Z,60.69
2018-04-01T10:30:36.762Z,60.27
2018-04-01T10:33:05.832Z,59.75
2018-04-01T10:35:34.170Z,60.85
2018-04-01T10:38:02.433Z,61.28
2018-04-01T10:40:30.758Z,61.94
2018-04-01T10:42:59.049Z,62.43
2018-04-01T10:45:27.343Z,62.85
2018-04-01T10:47:55.591Z,62.81
2018-04-01T10:50:23.908Z,62.66
2018-04-01T10:52:52.179Z,63.51
2018-04-01T10:55:19.996Z,63.47
2018-04-01T10:57:47.736Z,63.12
2018-04-01T11:00:15.514Z,62.89
2018-04-01T11:02:43.327Z,62.70
2018-04-01T11:05:11.044Z,62.65
2018-04-01T11:07:38.816Z,62.75
2018-04-01T11:10:06.580Z,63.51
2018-04-01T11:12:34.340Z,63.93
2018-04-01T11:15:02.079Z,63.88
2018-04-01T11:17:29.821Z,63.70
2018-04-01T11:19:57.625Z,61.82
2018-04-01T11:22:25.488Z,61.84
2018-04-01T11:24:53.236Z,61.77
2018-04-01T11:27:20.987Z,61.64
2018-04-01T11:29:48.760Z,63.34
2018-04-01T11:32:16.523Z,63.19
2018-04-01T11:34:44.320Z,65.86
2018-04-01T11:37:12.130Z,65.70
2018-04-01T11:39:39.860Z,66.34
2018-04-01T11:42:07.616Z,67.55
2018-04-01T11:44:35.367Z,70.20
2018-04-01T11:47:03.086Z,71.55
2018-04-01T11:49:30.862Z,70.63
2018-04-01T11:51:58.639Z,71.52
2018-04-01T11:54:26.423Z,70.85
2018-04-01T11:56:54.167Z,72.05
2018-04-01T11:59:21.933Z,71.77
2018-04-01T12:01:49.687Z,70.84
2018-04-01T12:04:17.495Z,70.26
2018-04-01T12:06:45.433Z,69.82
2018-04-01T12:09:13.180Z,70.02
2018-04-01T12:11:40.911Z,70.03
2018-04-01T12:14:08.707Z,69.50
2018-04-01T12:16:36.442Z,70.21
2018-04-01T12:19:05.220Z,69.88
2018-04-01T12:21:32.992Z,60.90
2018-04-01T12:24:00.917Z,61.45
2018-04-01T12:26:28.684Z,61.07
2018-04-01T12:28:56.432Z,60.59
2018-04-01T12:31:24.334Z,60.22
2018-04-01T12:33:52.070Z,59.81
2018-04-01T12:36:19.854Z,57.67
2018-04-01T12:38:47.603Z,57.37
2018-04-01T12:41:15.463Z,58.97
2018-04-01T12:43:43.237Z,58.42
2018-04-01T12:46:11.011Z,57.92
2018-04-01T12:48:39.082Z,58.57
2018-04-01T12:51:06.949Z,58.69
2018-04-01T12:53:34.692Z,58.46
2018-04-01T12:56:02.467Z,58.69
2018-04-01T12:58:30.305Z,57.62
2018-04-01T13:00:58.102Z,58.22
2018-04-01T13:03:25.907Z,58.91
2018-04-01T13:05:53.723Z,59.66
2018-04-01T13:08:21.498Z,61.53
2018-04-01T13:10:49.305Z,62.77
2018-04-01T13:13:17.053Z,64.05
2018-04-01T13:15:44.883Z,65.55
2018-04-01T13:18:12.606Z,65.24
2018-04-01T13:20:40.387Z,65.98
2018-04-01T13:23:08.179Z,66.94
2018-04-01T13:25:35.958Z,67.04
2018-04-01T13:28:03.719Z,67.04
2018-04-01T13:30:31.471Z,66.92
2018-04-01T13:32:59.256Z,68.18
2018-04-01T13:35:27.040Z,68.22
2018-04-01T13:37:54.768Z,66.69
2018-04-01T13:40:24.699Z,65.71
2018-04-01T13:42:52.428Z,65.16
2018-04-01T13:45:20.250Z,66.01
2018-04-01T13:47:47.989Z,66.39
2018-04-01T13:50:15.855Z,66.43
2018-04-01T13:52:43.640Z,66.98
2018-04-01T13:55:11.405Z,68.99
2018-04-01T13:57:39.140Z,69.37
2018-04-01T14:00:06.895Z,70.99
2018-04-01T14:02:34.648Z,70.77
2018-04-01T14:05:02.412Z,70.14
2018-04-01T14:07:30.209Z,69.77
2018-04-01T14:09:58.070Z,70.00
2018-04-01T14:12:25.850Z,69.17
2018-04-01T14:14:53.572Z,67.84
2018-04-01T14:17:21.336Z,68.71
2018-04-01T14:19:49.163Z,67.67
2018-04-01T14:22:17.813Z,66.95
2018-04-01T14:24:45.613Z,65.86
2018-04-01T14:27:13.343Z,62.71
2018-04-01T14:29:41.742Z,63.38
2018-04-01T14:32:09.536Z,64.05
2018-04-01T14:34:37.304Z,61.98
2018-04-01T14:37:05.111Z,59.69
2018-04-01T14:39:32.897Z,59.84
2018-04-01T14:42:00.729Z,62.64
2018-04-01T14:44:28.547Z,59.84
2018-04-01T14:46:56.307Z,58.51
2018-04-01T14:49:24.029Z,57.78
2018-04-01T14:51:51.834Z,58.04
2018-04-01T14:54:19.594Z,58.38
2018-04-01T14:56:47.813Z,58.83
2018-04-01T14:59:15.632Z,60.32
2018-04-01T15:01:43.451Z,62.25
2018-04-01T15:04:11.237Z,64.87
2018-04-01T15:06:39.604Z,65.82
2018-04-01T15:09:07.349Z,65.86
2018-04-01T15:11:35.120Z,67.65
2018-04-01T15:14:02.868Z,68.04
2018-04-01T15:16:31.499Z,69.42
2018-04-01T15:18:59.268Z,69.96
2018-04-01T15:21:26.991Z,70.94
2018-04-01T15:23:54.743Z,70.77
2018-04-01T15:26:22.495Z,70.47
2018-04-01T15:28:50.277Z,70.16
2018-04-01T15:31:18.039Z,70.59
2018-04-01T15:33:45.839Z,70.52
2018-04-01T15:36:13.578Z,70.43
2018-04-01T15:38:41.328Z,69.48
2018-04-01T15:41:09.087Z,70.62
2018-04-01T15:43:36.843Z,70.18
2018-04-01T15:46:05.195Z,70.10
2018-04-01T15:48:33.000Z,68.79
2018-04-01T15:51:00.799Z,68.61
2018-04-01T15:53:28.531Z,68.88
2018-04-01T15:55:56.309Z,67.91
2018-04-01T15:58:24.123Z,66.47
2018-04-01T16:00:51.881Z,65.95
2018-04-01T16:03:19.629Z,65.83
2018-04-01T16:05:48.257Z,66.26
2018-04-01T16:08:15.996Z,67.41
2018-04-01T16:10:43.798Z,67.04
2018-04-01T16:13:11.563Z,66.45
2018-04-01T16:15:39.365Z,65.09
2018-04-01T16:18:07.097Z,65.32
2018-04-01T16:20:35.390Z,65.39
2018-04-01T16:23:04.184Z,65.93
2018-04-01T16:25:31.926Z,65.25
2018-04-01T16:27:59.733Z,64.00
2018-04-01T16:30:27.468Z,64.30
2018-04-01T16:32:55.315Z,64.18
2018-04-01T16:35:23.017Z,63.38
2018-04-01T16:37:50.846Z,62.88
2018-04-01T16:40:18.592Z,62.72
2018-04-01T16:42:46.397Z,62.49
2018-04-01T16:45:14.150Z,62.32
2018-04-01T16:47:41.917Z,61.52
2018-04-01T16:50:09.671Z,61.67
2018-04-01T16:52:37.444Z,61.58
2018-04-01T16:55:05.204Z,61.50
2018-04-01T16:57:33.063Z,61.18
2018-04-01T17:00:00.819Z,62.07
2018-04-01T17:02:29.109Z,62.75
2018-04-01T17:04:56.880Z,63.56
2018-04-01T17:07:24.654Z,64.49
2018-04-01T17:09:52.356Z,66.11
2018-04-01T17:12:20.175Z,66.60
2018-04-01T17:14:47.900Z,68.98
2018-04-01T17:17:15.712Z,69.88
2018-04-01T17:19:43.441Z,71.03
2018-04-01T17:22:11.161Z,72.33
2018-04-01T17:24:38.927Z,73.52
2018-04-01T17:27:06.660Z,75.17
2018-04-01T17:29:34.518Z,75.96
2018-04-01T17:32:02.312Z,75.06
2018-04-01T17:34:30.108Z,73.72
2018-04-01T17:36:57.845Z,72.37
2018-04-01T17:39:25.667Z,71.60
2018-04-01T17:41:53.397Z,71.90
2018-04-01T17:44:21.152Z,72.29
2018-04-01T17:46:48.906Z,71.78
2018-04-01T17:49:16.688Z,72.12
2018-04-01T17:51:44.417Z,72.49
2018-04-01T17:54:12.211Z,72.84
2018-04-01T17:56:40.003Z,73.26
2018-04-01T17:59:08.071Z,73.33
2018-04-01T18:01:35.784Z,73.32
2018-04-01T18:04:04.652Z,74.64
2018-04-01T18:06:32.445Z,74.72
2018-04-01T18:09:00.272Z,74.05
2018-04-01T18:11:28.032Z,75.02
2018-04-01T18:13:55.807Z,75.18
2018-04-01T18:16:23.544Z,75.37
2018-04-01T18:18:54.824Z,75.47
2018-04-01T18:21:23.863Z,76.45
2018-04-01T18:23:51.635Z,75.91
2018-04-01T18:26:19.437Z,75.74
2018-04-01T18:28:47.176Z,75.42
2018-04-01T18:31:14.952Z,75.11
2018-04-01T18:33:42.689Z,74.80
2018-04-01T18:36:16.932Z,74.79
2018-04-01T18:38:44.687Z,74.60
2018-04-01T18:41:12.532Z,74.71
2018-04-01T18:43:40.280Z,74.74
2018-04-01T18:46:08.359Z,74.47
2018-04-01T18:48:36.093Z,74.91
2018-04-01T18:51:04.447Z,74.83
2018-04-01T18:53:32.223Z,75.19
2018-04-01T18:55:59.980Z,74.39
2018-04-01T18:58:27.743Z,73.91
2018-04-01T19:00:55.492Z,74.88
2018-04-01T19:03:23.193Z,74.26
2018-04-01T19:05:51.281Z,74.58
2018-04-01T19:08:19.024Z,74.37
2018-04-01T19:10:46.782Z,73.82
2018-04-01T19:13:14.611Z,74.16
2018-04-01T19:15:42.414Z,73.42
2018-04-01T19:18:10.726Z,73.27
2018-04-01T19:20:39.009Z,73.17
2018-04-01T19:23:08.198Z,73.15
2018-04-01T19:25:36.487Z,72.63
2018-04-01T19:28:05.402Z,72.54
2018-04-01T19:30:33.675Z,72.62
2018-04-01T19:33:02.083Z,72.15
2018-04-01T19:35:30.434Z,71.62
2018-04-01T19:37:58.888Z,72.08
2018-04-01T19:40:27.249Z,72.28
2018-04-01T19:42:55.541Z,72.34
2018-04-01T19:45:23.846Z,72.28
2018-04-01T19:47:52.173Z,72.55
2018-04-01T19:50:20.474Z,72.23
2018-04-01T19:52:48.789Z,71.94
2018-04-01T19:55:17.122Z,71.62
2018-04-01T19:57:45.448Z,71.80
2018-04-01T20:00:13.778Z,71.54
2018-04-01T20:02:42.797Z,71.87
2018-04-01T20:05:11.186Z,72.11
2018-04-01T20:07:39.431Z,72.13
2018-04-01T20:10:07.762Z,72.16
2018-04-01T20:12:36.149Z,72.19
2018-04-01T20:15:05.771Z,72.01
2018-04-01T20:17:34.046Z,72.45
2018-04-01T20:20:02.396Z,72.73
2018-04-01T20:22:30.725Z,73.25
2018-04-01T20:24:59.033Z,73.14
2018-04-01T20:27:27.394Z,72.86
2018-04-01T20:29:55.716Z,73.31
2018-04-01T20:32:24.053Z,73.60
2018-04-01T20:34:52.382Z,73.61
2018-04-01T20:37:20.793Z,73.57
2018-04-01T20:39:49.098Z,73.77
2018-04-01T20:42:17.433Z,73.52
2018-04-01T20:44:45.724Z,72.98
2018-04-01T20:47:14.821Z,72.34
2018-04-01T20:49:43.114Z,71.72
2018-04-01T20:52:11.465Z,71.58
2018-04-01T20:54:39.766Z,70.87
2018-04-01T20:57:08.121Z,70.84
2018-04-01T20:59:37.312Z,71.69
2018-04-01T21:02:05.617Z,71.66
2018-04-01T21:04:34.608Z,71.43
2018-04-01T21:07:02.962Z,70.82
2018-04-01T21:09:31.254Z,69.69
2018-04-01T21:12:00.336Z,69.50
2018-04-01T21:14:28.613Z,69.23
2018-04-01T21:16:56.932Z,69.22
2018-04-01T21:19:25.237Z,69.20
2018-04-01T21:21:53.516Z,68.31
2018-04-01T21:24:21.885Z,68.25
2018-04-01T21:26:50.192Z,67.42
2018-04-01T21:29:19.225Z,67.64
2018-04-01T21:31:47.518Z,67.44
2018-04-01T21:34:15.942Z,67.13
2018-04-01T21:36:44.242Z,68.84
2018-04-01T21:39:12.674Z,69.97
2018-04-01T21:41:41.048Z,70.92
2018-04-01T21:44:09.354Z,72.17
2018-04-01T21:46:37.814Z,71.34
2018-04-01T21:49:06.181Z,72.84
2018-04-01T21:51:34.450Z,73.17
2018-04-01T21:54:02.777Z,73.65
2018-04-01T21:56:31.063Z,73.93
2018-04-01T21:58:59.396Z,73.64
2018-04-01T22:01:27.739Z,73.86
2018-04-01T22:03:56.198Z,73.84
2018-04-01T22:06:25.541Z,73.53
2018-04-01T22:08:53.971Z,73.15
2018-04-01T22:11:22.241Z,74.03
2018-04-01T22:13:50.654Z,73.39
2018-04-01T22:16:18.893Z,73.84
2018-04-01T22:18:47.298Z,73.90
2018-04-01T22:21:15.552Z,74.24
2018-04-01T22:23:43.888Z,73.70
2018-04-01T22:26:12.210Z,74.16
2018-04-01T22:28:41.187Z,74.22
2018-04-01T22:31:09.478Z,74.03
2018-04-01T22:33:37.808Z,74.34
2018-04-01T22:36:06.145Z,73.75
2018-04-01T22:38:34.432Z,73.68
2018-04-01T22:41:02.967Z,73.62
2018-04-01T22:43:31.251Z,74.05
2018-04-01T22:45:59.548Z,74.05
2018-04-01T22:48:27.872Z,73.90
2018-04-01T22:50:56.244Z,73.68
2018-04-01T22:53:24.538Z,73.07
2018-04-01T22:55:52.824Z,73.96
2018-04-01T22:58:21.090Z,74.97
2018-04-01T23:00:49.368Z,74.65
2018-04-01T23:03:17.644Z,75.39
2018-04-01T23:05:45.991Z,74.97
2018-04-01T23:08:14.282Z,74.94
2018-04-01T23:10:42.561Z,75.13
2018-04-01T23:13:10.844Z,75.42
2018-04-01T23:15:39.171Z,75.70
2018-04-01T23:18:07.488Z,75.40
2018-04-01T23:20:36.176Z,75.24
2018-04-01T23:23:05.232Z,75.41
2018-04-01T23:25:33.916Z,75.80
2018-04-01T23:28:02.253Z,74.95
2018-04-01T23:30:32.083Z,75.23
2018-04-01T23:33:00.370Z,75.44
2018-04-01T23:35:28.707Z,75.45
2018-04-01T23:37:57.868Z,75.73
2018-04-01T23:40:26.147Z,75.40
2018-04-01T23:42:54.461Z,75.67
2018-04-01T23:45:22.734Z,75.86
2018-04-01T23:47:51.047Z,75.95
2018-04-01T23:50:19.399Z,75.56
2018-04-01T23:52:47.661Z,75.75
2018-04-01T23:55:15.938Z,76.12
2018-04-01T23:57:44.523Z,75.91
